createdAt,value
2019-03-08T00:00:39.880Z,0.97
2019-03-08T00:03:27.305Z,1.20
2019-03-08T00:06:14.624Z,0.93
2019-03-08T00:09:04.094Z,1.00
2019-03-08T00:11:51.827Z,1.13
2019-03-08T00:14:38.893Z,0.80
2019-03-08T00:17:26.676Z,0.90
2019-03-08T00:20:14.204Z,1.03
2019-03-08T00:23:01.731Z,1.20
2019-03-08T00:25:49.256Z,0.87
2019-03-08T00:28:36.679Z,1.03
2019-03-08T00:31:24.206Z,1.10
2019-03-08T00:34:11.936Z,1.37
2019-03-08T00:36:59.370Z,1.10
2019-03-08T00:39:46.688Z,1.20
2019-03-08T00:42:34.520Z,1.23
2019-03-08T00:45:22.152Z,1.10
2019-03-08T00:48:09.364Z,1.30
2019-03-08T00:50:56.729Z,1.40
2019-03-08T00:53:44.317Z,1.30
2019-03-08T00:56:31.740Z,1.10
2019-03-08T00:59:19.781Z,1.20
2019-03-08T01:02:07.206Z,1.23
2019-03-08T01:04:54.885Z,1.40
2019-03-08T01:07:42.728Z,1.20
2019-03-08T01:10:30.307Z,1.40
2019-03-08T01:13:17.923Z,1.30
2019-03-08T01:16:05.656Z,1.10
2019-03-08T01:18:53.081Z,1.33
2019-03-08T01:21:40.002Z,1.47
2019-03-08T01:24:27.655Z,1.40
2019-03-08T01:27:15.044Z,1.30
2019-03-08T01:30:03.086Z,1.20
2019-03-08T01:32:50.723Z,1.20
2019-03-08T01:35:37.828Z,1.27
2019-03-08T01:38:26.235Z,1.30
2019-03-08T01:41:14.111Z,1.50
2019-03-08T01:44:01.330Z,1.30
2019-03-08T01:46:48.654Z,1.30
2019-03-08T01:49:36.593Z,1.33
2019-03-08T01:52:24.219Z,1.40
2019-03-08T01:55:11.439Z,1.20
2019-03-08T01:57:58.963Z,1.30
2019-03-08T02:00:46.825Z,1.03
2019-03-08T02:03:34.342Z,1.10
2019-03-08T02:06:21.646Z,1.30
2019-03-08T02:09:09.275Z,1.47
2019-03-08T02:11:56.638Z,1.40
2019-03-08T02:14:44.635Z,1.40
2019-03-08T02:17:32.066Z,1.40
2019-03-08T02:20:21.477Z,1.27
2019-03-08T02:23:09.056Z,1.70
2019-03-08T02:25:56.380Z,1.40
2019-03-08T02:28:43.497Z,1.17
2019-03-08T02:31:31.127Z,1.30
2019-03-08T02:34:19.061Z,1.30
2019-03-08T02:37:06.386Z,1.50
2019-03-08T02:39:54.218Z,1.37
2019-03-08T02:42:41.947Z,1.40
2019-03-08T02:45:29.576Z,1.30
2019-03-08T02:48:17.101Z,1.23
2019-03-08T02:51:04.628Z,1.40
2019-03-08T02:53:52.154Z,1.50
2019-03-08T02:56:39.682Z,1.50
2019-03-08T02:59:27.415Z,1.50
2019-03-08T03:02:14.721Z,1.80
2019-03-08T03:05:02.570Z,1.70
2019-03-08T03:07:50.406Z,1.50
2019-03-08T03:10:37.733Z,1.50
2019-03-08T03:13:25.253Z,1.50
2019-03-08T03:16:12.849Z,1.60
2019-03-08T03:19:00.634Z,1.60
2019-03-08T03:21:47.938Z,1.30
2019-03-08T03:24:35.463Z,1.50
2019-03-08T03:27:22.474Z,1.50
2019-03-08T03:30:18.396Z,1.53
2019-03-08T03:33:05.521Z,1.23
2019-03-08T03:35:52.938Z,1.57
2019-03-08T03:38:40.669Z,1.60
2019-03-08T03:41:29.436Z,1.40
2019-03-08T03:44:16.952Z,1.60
2019-03-08T03:47:04.684Z,1.40
2019-03-08T03:49:52.635Z,1.33
2019-03-08T03:52:40.351Z,1.40
2019-03-08T03:55:27.990Z,1.43
2019-03-08T03:58:15.095Z,1.40
2019-03-08T04:01:04.466Z,1.60
2019-03-08T04:03:51.788Z,1.57
2019-03-08T04:06:39.725Z,1.50
2019-03-08T04:09:26.945Z,1.37
2019-03-08T04:12:14.369Z,1.83
2019-03-08T04:15:02.000Z,1.30
2019-03-08T04:17:49.419Z,1.40
2019-03-08T04:20:37.666Z,1.27
2019-03-08T04:23:24.473Z,1.20
2019-03-08T04:26:12.205Z,1.40
2019-03-08T04:28:59.630Z,1.10
2019-03-08T04:31:47.259Z,1.30
2019-03-08T04:34:34.586Z,1.00
2019-03-08T04:37:21.903Z,1.40
2019-03-08T04:40:14.050Z,1.30
2019-03-08T04:43:01.372Z,1.20
2019-03-08T04:45:48.990Z,1.20
2019-03-08T04:48:36.412Z,1.50
2019-03-08T04:51:23.937Z,1.40
2019-03-08T04:54:11.361Z,1.30
2019-03-08T04:56:58.897Z,1.20
2019-03-08T04:59:46.312Z,1.10
2019-03-08T05:02:33.737Z,1.50
2019-03-08T05:05:21.163Z,1.10
2019-03-08T05:08:08.687Z,1.20
2019-03-08T05:10:57.136Z,1.20
2019-03-08T05:13:44.869Z,1.30
2019-03-08T05:16:32.394Z,1.10
2019-03-08T05:19:19.820Z,1.20
2019-03-08T05:22:07.769Z,1.13
2019-03-08T05:24:55.383Z,1.20
2019-03-08T05:27:42.600Z,1.10
2019-03-08T05:30:29.825Z,1.03
2019-03-08T05:33:17.450Z,1.10
2019-03-08T05:36:04.975Z,0.90
2019-03-08T05:38:52.501Z,1.07
2019-03-08T05:41:39.925Z,1.30
2019-03-08T05:44:27.556Z,1.00
2019-03-08T05:47:15.085Z,1.10
2019-03-08T05:50:02.096Z,0.90
2019-03-08T05:52:49.828Z,1.30
2019-03-08T05:55:37.560Z,1.13
2019-03-08T05:58:25.290Z,1.13
2019-03-08T06:01:13.229Z,1.17
2019-03-08T06:04:00.649Z,1.13
2019-03-08T06:06:48.282Z,1.30
2019-03-08T06:09:35.499Z,1.30
2019-03-08T06:12:22.926Z,1.00
2019-03-08T06:15:10.553Z,1.10
2019-03-08T06:17:58.180Z,1.20
2019-03-08T06:20:45.605Z,1.17
2019-03-08T06:23:33.439Z,1.20
2019-03-08T06:26:20.862Z,1.50
2019-03-08T06:29:08.697Z,1.13
2019-03-08T06:31:56.329Z,1.10
2019-03-08T06:34:44.366Z,1.30
2019-03-08T06:37:32.160Z,1.20
2019-03-08T06:40:19.620Z,1.23
2019-03-08T06:43:06.635Z,1.30
2019-03-08T06:45:54.263Z,1.20
2019-03-08T06:48:41.384Z,1.13
2019-03-08T06:51:29.214Z,1.20
2019-03-08T06:54:16.230Z,1.20
2019-03-08T06:57:03.758Z,1.27
2019-03-08T06:59:53.024Z,1.20
2019-03-08T07:02:40.362Z,1.13
2019-03-08T07:05:28.078Z,1.00
2019-03-08T07:08:15.501Z,1.33
2019-03-08T07:11:02.825Z,1.30
2019-03-08T07:13:50.362Z,1.20
2019-03-08T07:16:37.677Z,1.23
2019-03-08T07:19:25.099Z,1.60
2019-03-08T07:22:14.261Z,1.10
2019-03-08T07:25:06.600Z,1.00
2019-03-08T07:28:11.535Z,1.20
2019-03-08T07:31:17.084Z,1.30
2019-03-08T07:34:11.676Z,1.03
2019-03-08T07:37:09.748Z,1.00
2019-03-08T07:40:07.005Z,1.33
2019-03-08T07:43:01.493Z,1.30
2019-03-08T07:46:02.741Z,1.00
2019-03-08T07:49:06.960Z,1.40
2019-03-08T07:52:02.062Z,1.40
2019-03-08T07:55:07.149Z,1.07
2019-03-08T07:58:05.482Z,1.43
2019-03-08T08:01:00.789Z,1.10
2019-03-08T08:04:06.033Z,1.43
2019-03-08T08:06:55.503Z,1.50
2019-03-08T08:09:44.265Z,1.33
2019-03-08T08:12:33.644Z,1.37
2019-03-08T08:15:40.820Z,1.40
2019-03-08T08:18:38.597Z,1.30
2019-03-08T08:21:30.716Z,1.57
2019-03-08T08:24:28.075Z,1.50
2019-03-08T08:27:29.118Z,1.40
2019-03-08T08:30:18.387Z,1.40
2019-03-08T08:33:23.833Z,1.20
2019-03-08T08:36:12.901Z,1.20
2019-03-08T08:39:04.977Z,1.10
2019-03-08T08:42:02.286Z,1.33
2019-03-08T08:44:53.071Z,1.10
2019-03-08T08:47:44.811Z,1.20
2019-03-08T08:50:35.635Z,1.27
2019-03-08T08:53:26.191Z,1.47
2019-03-08T08:56:15.583Z,1.20
2019-03-08T08:59:07.409Z,1.03
2019-03-08T09:02:02.616Z,1.10
2019-03-08T09:04:52.806Z,1.20
2019-03-08T09:07:42.174Z,0.97
2019-03-08T09:10:31.139Z,1.00
2019-03-08T09:13:22.555Z,1.10
2019-03-08T09:16:26.949Z,1.10
2019-03-08T09:19:18.700Z,1.13
2019-03-08T09:22:07.769Z,1.07
2019-03-08T09:25:00.179Z,1.20
2019-03-08T09:27:52.034Z,0.90
2019-03-08T09:30:46.942Z,1.00
2019-03-08T09:33:35.544Z,1.20
2019-03-08T09:36:30.897Z,1.10
2019-03-08T09:39:25.998Z,1.20
2019-03-08T09:42:15.060Z,1.20
2019-03-08T09:45:13.256Z,1.10
2019-03-08T09:48:18.791Z,1.30
2019-03-08T09:51:22.907Z,1.00
2019-03-08T09:54:28.347Z,1.00
2019-03-08T09:57:17.820Z,1.20
2019-03-08T10:00:31.257Z,1.20
2019-03-08T10:03:20.420Z,1.20
2019-03-08T10:06:09.582Z,1.17
2019-03-08T10:08:58.548Z,1.27
2019-03-08T10:11:59.592Z,1.20
2019-03-08T10:14:51.215Z,1.13
2019-03-08T10:17:52.072Z,1.03
2019-03-08T10:20:44.198Z,1.40
2019-03-08T10:23:36.422Z,0.93
2019-03-08T10:26:28.350Z,1.20
2019-03-08T10:29:17.821Z,1.10
2019-03-08T10:32:23.780Z,1.13
2019-03-08T10:35:23.282Z,1.10
2019-03-08T10:38:07.644Z,1.20
2019-03-08T10:41:00.286Z,1.30
2019-03-08T10:44:08.688Z,1.27
2019-03-08T10:46:58.225Z,1.00
2019-03-08T10:50:05.568Z,1.23
2019-03-08T10:52:54.941Z,1.07
2019-03-08T10:55:46.559Z,1.30
2019-03-08T10:58:38.695Z,1.30
2019-03-08T11:01:28.095Z,1.57
2019-03-08T11:04:23.167Z,1.30
2019-03-08T11:07:12.230Z,1.50
2019-03-08T11:10:07.439Z,1.33
2019-03-08T11:13:13.302Z,1.60
2019-03-08T11:16:05.324Z,1.37
2019-03-08T11:18:54.615Z,1.53
2019-03-08T11:24:44.904Z,1.60
2019-03-08T11:27:42.882Z,1.43
2019-03-08T11:30:53.908Z,1.80
2019-03-08T11:33:40.357Z,1.50
2019-03-08T11:36:35.357Z,1.70
2019-03-08T11:39:24.522Z,1.70
2019-03-08T11:42:22.594Z,1.50
2019-03-08T11:45:28.245Z,1.80
2019-03-08T11:48:29.289Z,1.90
2019-03-08T11:51:30.537Z,1.77
2019-03-08T11:54:40.789Z,1.80
2019-03-08T11:57:42.659Z,1.80
2019-03-08T12:00:38.275Z,1.83
2019-03-08T12:07:05.964Z,1.90
2019-03-08T12:10:00.865Z,1.90
2019-03-08T12:12:53.418Z,1.80
2019-03-08T12:15:49.331Z,1.73
2019-03-08T12:18:41.054Z,1.60
2019-03-08T12:21:35.544Z,1.53
2019-03-08T12:24:24.223Z,1.80
2019-03-08T12:27:29.337Z,1.67
2019-03-08T12:30:24.670Z,1.80
2019-03-08T12:33:16.272Z,1.80
2019-03-08T12:36:04.920Z,1.70
2019-03-08T12:39:12.210Z,1.80
2019-03-08T12:42:07.621Z,1.80
2019-03-08T12:44:56.330Z,1.90
2019-03-08T12:47:45.336Z,1.90
2019-03-08T12:50:46.589Z,1.97
2019-03-08T12:53:41.384Z,2.00
2019-03-08T12:56:30.859Z,1.83
2019-03-08T12:59:22.070Z,1.93
2019-03-08T13:02:27.209Z,1.63
2019-03-08T13:05:16.373Z,2.10
2019-03-08T13:08:23.150Z,2.17
2019-03-08T13:11:10.575Z,1.90
2019-03-08T13:13:57.690Z,1.70
2019-03-08T13:16:45.217Z,2.00
2019-03-08T13:19:32.641Z,2.00
2019-03-08T13:22:20.168Z,1.93
2019-03-08T13:25:08.479Z,1.80
2019-03-08T13:27:55.939Z,2.23
2019-03-08T13:30:43.362Z,2.00
2019-03-08T13:33:30.888Z,1.90
2019-03-08T13:36:18.521Z,1.90
2019-03-08T13:39:07.595Z,1.70
2019-03-08T13:41:55.012Z,1.90
2019-03-08T13:44:42.437Z,1.83
2019-03-08T13:47:32.063Z,1.80
2019-03-08T13:50:19.899Z,1.83
2019-03-08T13:53:08.842Z,1.80
2019-03-08T13:56:04.420Z,1.40
2019-03-08T13:58:51.846Z,1.70
2019-03-08T14:01:39.067Z,1.73
2019-03-08T14:04:26.586Z,1.60
2019-03-08T14:07:14.424Z,1.70
2019-03-08T14:10:01.540Z,1.50
2019-03-08T14:12:48.963Z,1.40
2019-03-08T14:15:36.803Z,1.40
2019-03-08T14:18:24.324Z,1.70
2019-03-08T14:21:12.159Z,1.40
2019-03-08T14:23:59.682Z,1.50
2019-03-08T14:26:47.823Z,1.70
2019-03-08T14:29:35.043Z,1.50
2019-03-08T14:32:25.381Z,1.40
2019-03-08T14:35:11.846Z,1.30
2019-03-08T14:37:59.573Z,1.60
2019-03-08T14:40:48.614Z,1.50
2019-03-08T14:43:40.254Z,1.50
2019-03-08T14:46:33.104Z,1.53
2019-03-08T14:49:22.800Z,1.50
2019-03-08T14:52:09.285Z,1.37
2019-03-08T14:54:57.426Z,1.30
2019-03-08T14:57:44.543Z,1.40
2019-03-08T15:00:32.076Z,1.40
2019-03-08T15:03:20.129Z,1.40
2019-03-08T15:06:10.606Z,1.30
2019-03-08T15:08:58.340Z,1.20
2019-03-08T15:11:46.170Z,1.30
2019-03-08T15:14:33.816Z,1.43
2019-03-08T15:17:22.564Z,1.10
2019-03-08T15:20:15.337Z,1.33
2019-03-08T15:23:01.723Z,1.10
2019-03-08T15:25:50.539Z,1.30
2019-03-08T15:28:38.498Z,1.53
2019-03-08T15:31:26.027Z,1.40
2019-03-08T15:34:14.624Z,1.40
2019-03-08T15:37:02.612Z,1.67
2019-03-08T15:39:50.356Z,1.97
2019-03-08T15:42:38.043Z,1.50
2019-03-08T15:45:25.401Z,1.50
2019-03-08T15:48:14.497Z,1.40
2019-03-08T15:51:01.987Z,1.60
2019-03-08T15:53:49.740Z,1.50
2019-03-08T15:56:37.563Z,1.50
2019-03-08T15:59:25.201Z,1.40
2019-03-08T16:02:13.839Z,1.60
2019-03-08T16:05:03.749Z,1.30
2019-03-08T16:07:50.321Z,1.50
2019-03-08T16:10:37.747Z,1.40
2019-03-08T16:13:25.581Z,1.50
2019-03-08T16:16:13.625Z,1.40
2019-03-08T16:19:00.838Z,1.40
2019-03-08T16:21:50.535Z,1.50
2019-03-08T16:24:39.141Z,1.90
2019-03-08T16:27:26.591Z,1.60
2019-03-08T16:30:30.811Z,1.17
2019-03-08T16:33:37.894Z,1.40
2019-03-08T16:36:32.698Z,1.30
2019-03-08T16:39:27.306Z,1.63
2019-03-08T16:42:16.039Z,1.50
2019-03-08T16:45:17.292Z,1.53
2019-03-08T16:48:07.280Z,1.77
2019-03-08T16:51:00.018Z,1.47
2019-03-08T16:53:46.523Z,1.80
2019-03-08T16:56:35.588Z,1.80
2019-03-08T16:59:24.753Z,1.87
2019-03-08T17:02:16.692Z,1.90
2019-03-08T17:05:07.038Z,1.50
2019-03-08T17:08:01.978Z,1.90
2019-03-08T17:10:53.704Z,1.63
2019-03-08T17:13:49.623Z,1.90
2019-03-08T17:16:50.465Z,1.77
2019-03-08T17:19:54.579Z,1.77
2019-03-08T17:22:44.764Z,1.87
2019-03-08T17:25:52.055Z,2.10
2019-03-08T17:28:43.688Z,2.50
2019-03-08T17:31:47.714Z,1.90
2019-03-08T17:34:42.771Z,2.13
2019-03-08T17:37:37.595Z,2.00
2019-03-08T17:40:32.697Z,2.10
2019-03-08T17:43:21.722Z,1.93
2019-03-08T17:46:22.615Z,1.90
2019-03-08T17:49:11.764Z,2.10
2019-03-08T17:52:00.932Z,2.00
2019-03-08T17:54:59.009Z,2.03
2019-03-08T17:57:59.864Z,1.80
2019-03-08T18:00:57.913Z,1.50
2019-03-08T18:03:55.579Z,1.70
2019-03-08T18:06:48.066Z,2.20
2019-03-08T18:09:52.141Z,2.00
2019-03-08T18:12:41.711Z,3.80
2019-03-08T18:15:35.907Z,4.70
2019-03-08T18:18:27.617Z,5.10
2019-03-08T18:21:16.999Z,4.50
2019-03-08T18:24:06.356Z,3.20
2019-03-08T18:26:57.951Z,3.00
2019-03-08T18:29:55.439Z,2.43
2019-03-08T18:32:46.653Z,2.40
2019-03-08T18:35:35.615Z,2.20
2019-03-08T18:38:34.612Z,2.47
2019-03-08T18:41:50.711Z,2.50
2019-03-08T18:44:45.300Z,2.23
2019-03-08T18:47:37.429Z,2.43
2019-03-08T18:50:29.463Z,2.57
2019-03-08T18:53:35.324Z,2.43
2019-03-08T18:56:27.146Z,2.77
2019-03-08T18:59:16.523Z,2.53
2019-03-08T19:02:14.283Z,3.20
2019-03-08T19:05:12.461Z,2.77
2019-03-08T19:08:01.419Z,2.60
2019-03-08T19:10:50.992Z,2.60
2019-03-08T19:13:48.965Z,2.60
2019-03-08T19:16:40.999Z,2.07
2019-03-08T19:19:48.092Z,2.20
2019-03-08T19:22:49.231Z,4.80
2019-03-08T19:25:41.163Z,3.17
2019-03-08T19:28:44.966Z,3.70
2019-03-08T19:31:34.337Z,2.90
2019-03-08T19:34:29.132Z,2.63
2019-03-08T19:37:35.418Z,2.40
2019-03-08T19:40:24.565Z,2.37
2019-03-08T19:43:16.703Z,2.37
2019-03-08T19:46:05.966Z,2.67
2019-03-08T19:49:03.710Z,2.43
2019-03-08T19:51:52.900Z,2.80
2019-03-08T19:54:51.282Z,2.90
2019-03-08T19:57:48.949Z,2.80
2019-03-08T20:00:46.919Z,3.13
2019-03-08T20:03:51.541Z,2.90
2019-03-08T20:06:43.582Z,2.80
2019-03-08T20:09:48.616Z,2.70
2019-03-08T20:12:49.861Z,2.60
2019-03-08T20:15:55.659Z,2.90
2019-03-08T20:18:54.005Z,2.60
2019-03-08T20:21:58.723Z,2.40
2019-03-08T20:24:56.694Z,2.97
2019-03-08T20:27:49.344Z,2.60
2019-03-08T20:30:48.711Z,2.73
2019-03-08T20:33:46.491Z,2.57
2019-03-08T20:36:37.835Z,2.50
2019-03-08T20:39:36.109Z,2.40
2019-03-08T20:42:28.270Z,2.27
2019-03-08T20:45:20.892Z,2.20
2019-03-08T20:48:09.341Z,2.30
2019-03-08T20:50:56.875Z,2.90
2019-03-08T20:53:45.927Z,2.30
2019-03-08T20:56:34.006Z,6.30
2019-03-08T20:59:21.696Z,2.87
2019-03-08T21:02:10.007Z,3.00
2019-03-08T21:04:57.879Z,2.87
2019-03-08T21:07:46.590Z,3.40
2019-03-08T21:10:34.057Z,2.90
2019-03-08T21:13:21.373Z,2.10
2019-03-08T21:16:09.107Z,3.23
2019-03-08T21:18:56.535Z,2.60
2019-03-08T21:21:44.321Z,2.50
2019-03-08T21:24:31.895Z,2.50
2019-03-08T21:27:19.272Z,2.50
2019-03-08T21:30:12.695Z,2.70
2019-03-08T21:32:59.963Z,2.50
2019-03-08T21:35:47.733Z,2.73
2019-03-08T21:38:34.952Z,2.93
2019-03-08T21:41:22.376Z,2.80
2019-03-08T21:44:10.212Z,2.70
2019-03-08T21:46:57.681Z,2.40
2019-03-08T21:49:45.386Z,2.60
2019-03-08T21:52:32.482Z,2.63
2019-03-08T21:55:20.316Z,3.10
2019-03-08T21:58:08.101Z,2.57
2019-03-08T22:00:55.579Z,2.80
2019-03-08T22:03:44.947Z,2.77
2019-03-08T22:06:32.481Z,2.63
2019-03-08T22:09:21.863Z,2.90
2019-03-08T22:12:09.368Z,2.90
2019-03-08T22:14:56.892Z,2.70
2019-03-08T22:17:45.238Z,2.53
2019-03-08T22:20:32.970Z,2.73
2019-03-08T22:23:21.011Z,2.40
2019-03-08T22:26:08.229Z,2.47
2019-03-08T22:28:56.062Z,2.40
2019-03-08T22:31:43.383Z,2.60
2019-03-08T22:34:30.704Z,2.70
2019-03-08T22:37:18.336Z,2.63
2019-03-08T22:40:06.889Z,3.20
2019-03-08T22:42:54.418Z,3.33
2019-03-08T22:45:41.937Z,2.67
2019-03-08T22:48:29.466Z,3.17
2019-03-08T22:51:17.095Z,3.03
2019-03-08T22:54:05.418Z,2.97
2019-03-08T22:56:52.663Z,3.50
2019-03-08T22:59:39.878Z,3.40
2019-03-08T23:02:27.304Z,3.37
2019-03-08T23:05:14.740Z,3.23
2019-03-08T23:08:02.561Z,3.17
2019-03-08T23:10:50.252Z,3.60
2019-03-08T23:13:37.733Z,3.03
2019-03-08T23:16:25.142Z,3.40
2019-03-08T23:19:12.973Z,3.30
2019-03-08T23:22:00.503Z,2.87
2019-03-08T23:24:48.235Z,3.10
2019-03-08T23:27:46.411Z,2.70
2019-03-08T23:30:33.626Z,2.93
2019-03-08T23:33:21.388Z,3.27
2019-03-08T23:36:08.891Z,2.73
2019-03-08T23:38:56.420Z,2.53
2019-03-08T23:41:44.256Z,2.80
2019-03-08T23:44:31.874Z,2.80
2019-03-08T23:47:19.920Z,2.70
2019-03-08T23:50:09.429Z,2.50
2019-03-08T23:52:57.019Z,2.20
2019-03-08T23:55:44.646Z,2.50
2019-03-08T23:58:32.485Z,2.10
